Latest Weather Observations for Mawson*

IDT60801

Issued at 8:02 pm EST Saturday 27 August 2016 (issued every 30 minutes, with the page automatically refreshed every 10 minutes)

About weather observations | Map of weather stations | Latest weather observations for ANT | Other Formats
Station Details ID: 300001 Name: MAWSON Lat: -67.60 Lon: 62.88 Height: 9.9 m
Data from the previous 72 hours. | See also: Recent months at Mawson*
Date/Time
EST
Temp
°C
App
Temp
°C
Dew
Point
°C
Rel
Hum
%
Delta-T
°C
Wind Press
QNH
hPa
Press
MSL
hPa
Rain since
9am
mm
Dir  Spd
km/h
Gust
km/h
Spd
kts
Gust
kts
27/08:00pm -12.3 -30.7 -19.9 53 - SE 78 98 42 53 975.4 - -
27/07:30pm -11.9 -29.6 -20.6 48 - SE 74 96 40 52 974.8 - -
27/07:00pm -11.6 -29.3 -21.1 45 - SE 74 93 40 50 975.0 975.1 -
27/06:30pm -12.2 -29.1 -20.5 50 - SE 70 89 38 48 975.0 - -
27/06:00pm -11.6 -28.0 -22.2 41 - SE 67 85 36 46 975.4 - -
27/05:48pm -12.5 -28.9 -21.2 48 - SE 67 89 36 48 974.8 - -
27/05:30pm -11.8 -27.0 -21.8 43 - SE 61 74 33 40 975.1 - -
27/05:00pm -12.1 -29.4 -21.6 45 - SE 72 85 39 46 974.6 - -
27/04:30pm -12.1 -28.5 -21.8 44 - SE 67 78 36 42 974.7 - -
27/04:00pm -12.3 -28.3 -22.3 43 - SE 65 78 35 42 974.5 974.6 -
27/03:30pm -12.4 -28.4 -21.3 47 - SE 65 78 35 42 974.4 - -
27/03:00pm -12.9 -28.5 -20.7 52 - SE 63 76 34 41 974.4 - -
27/02:30pm -13.6 -29.2 -20.3 57 - SE 63 74 34 40 974.2 - -
27/02:00pm -14.0 -28.8 -21.3 54 - SE 59 69 32 37 974.0 - -
27/01:30pm -12.7 -25.5 -23.4 40 - SE 48 59 26 32 974.2 - -
27/01:00pm -13.0 -26.2 -22.9 43 - SE 50 63 27 34 974.0 974.1 -
27/12:30pm -12.7 -25.9 -23.4 40 - SE 50 65 27 35 974.0 - -
27/12:00pm -12.9 -26.8 -23.3 41 - SE 54 61 29 33 973.7 - -
27/11:30am -12.9 -26.5 -23.9 39 - SE 52 63 28 34 973.8 - -
27/11:00am -14.9 -27.3 -23.2 49 - SE 46 54 25 29 973.7 - -
27/10:30am -13.9 -27.5 -23.7 43 - SE 52 59 28 32 973.4 - -
27/10:00am -13.6 -26.4 -23.7 42 - SE 48 61 26 33 972.9 973.0 -
27/09:42am -13.7 -27.7 -23.8 42 - SE 54 76 29 41 972.9 - -
27/09:30am -15.0 -29.0 -23.5 48 - SE 54 65 29 35 972.9 - -
27/09:00am -14.2 -27.8 -23.2 46 - SE 52 61 28 33 972.4 - -
27/08:30am -15.0 -28.6 -23.1 50 - SE 52 70 28 38 972.4 - -
27/08:28am -15.3 -28.9 -23.1 51 - SE 52 70 28 38 972.5 - -
27/08:00am -14.6 -28.2 -23.9 45 - SE 52 63 28 34 971.9 - -
27/07:30am -15.2 -28.4 -23.5 49 - SE 50 59 27 32 972.1 - -
27/07:00am -15.6 -28.8 -23.8 49 - ESE 50 59 27 32 972.1 972.2 -
27/06:30am -14.9 -29.4 -23.7 47 - SE 57 67 31 36 971.4 - -
27/06:00am -15.5 -27.6 -23.7 49 - SE 44 54 24 29 971.7 - -
27/05:30am -16.1 -30.6 -23.9 51 - SE 57 69 31 37 971.1 - -
27/05:00am -15.4 -28.2 -23.7 49 - SE 48 54 26 29 971.1 - -
27/04:30am -16.2 -30.6 -24.9 47 - SE 56 67 30 36 971.0 - -
27/04:00am -16.0 -30.4 -24.2 49 - SE 56 63 30 34 970.6 970.7 -
27/03:30am -16.0 -30.5 -24.0 50 - SE 57 63 31 34 970.5 - -
27/03:00am -16.6 -31.5 -23.9 53 - SE 59 69 32 37 970.4 - -
27/02:30am -16.9 -31.4 -23.8 55 - SE 57 65 31 35 970.2 - -
27/02:00am -16.3 -30.2 -23.2 55 - SE 54 61 29 33 970.2 - -
27/01:30am -15.5 -27.9 -23.7 49 - SE 46 65 25 35 970.5 - -
27/01:26am -15.6 -26.7 -23.8 49 - SE 39 63 21 34 970.6 - -
27/01:00am -15.5 -28.7 -23.7 49 - ESE 50 59 27 32 970.7 970.8 -
27/12:30am -15.6 -27.5 -23.4 51 - ESE 43 52 23 28 970.5 - -
27/12:00am -15.0 -26.8 -22.4 53 - SE 43 50 23 27 970.5 - -
 
Date/Time
EST
Temp
°C
App
Temp
°C
Dew
Point
°C
Rel
Hum
%
Delta-T
°C
Wind Press
QNH
hPa
Press
MSL
hPa
Rain since
9am
mm
Dir  Spd
km/h
Gust
km/h
Spd
kts
Gust
kts
26/11:30pm -14.7 -25.8 -22.1 53 - SE 39 46 21 25 970.6 - -
26/11:00pm -14.5 -26.5 -21.5 55 - SE 44 52 24 28 970.6 - -
26/10:30pm -14.6 -28.9 -21.2 57 - SE 56 61 30 33 970.3 - -
26/10:00pm -14.0 -25.8 -21.3 54 - ESE 43 50 23 27 970.5 970.6 -
26/09:30pm -13.6 -25.4 -20.5 56 - ESE 43 54 23 29 970.8 - -
26/09:00pm -13.4 -25.4 -20.3 56 - ESE 44 54 24 29 970.6 - -
26/08:30pm -13.4 -26.1 -19.9 58 - ESE 48 61 26 33 970.5 - -
26/08:00pm -13.2 -25.9 -19.3 60 - SE 48 59 26 32 970.8 - -
26/07:30pm -13.1 -25.8 -19.2 60 - SE 48 57 26 31 970.6 - -
26/07:00pm -13.1 -27.5 -19.0 61 - SE 57 65 31 35 970.5 970.6 -
26/06:30pm -13.2 -27.6 -19.7 58 - SE 57 65 31 35 970.4 - -
26/06:00pm -13.7 -29.2 -18.3 68 - SE 63 72 34 39 970.4 - -
26/05:30pm -13.1 -29.4 -19.0 61 - SE 67 76 36 41 970.5 - -
26/05:00pm -12.7 -29.0 -20.5 52 - SE 67 82 36 44 970.5 - -
26/04:30pm -12.6 -29.5 -20.6 51 - SE 70 82 38 44 970.5 - -
26/04:01pm -12.7 -30.4 -20.5 52 - SE 74 93 40 50 970.2 - -
26/04:00pm -12.5 -30.5 -20.5 51 - SE 76 93 41 50 970.0 970.1 -
26/03:58pm -12.8 -30.1 -20.1 54 - SE 72 93 39 50 970.2 - -
26/03:56pm -12.4 -30.8 -19.8 54 - SE 78 93 42 50 970.0 - -
26/03:52pm -12.3 -26.5 -19.9 53 - SE 56 98 30 53 970.1 - -
26/03:51pm -13.0 -24.7 -19.3 59 - ESE 43 72 23 39 970.7 - -
26/03:30pm -13.3 -31.7 -19.2 61 - SE 78 100 42 54 970.6 - -
26/03:08pm -13.3 -31.6 -18.1 67 - SE 78 96 42 52 970.1 - -
26/03:00pm -12.9 -32.2 -19.6 57 - SE 83 96 45 52 969.6 - -
26/02:31pm -13.4 -32.1 -18.4 66 - SE 80 104 43 56 969.4 - -
26/02:30pm -13.1 -31.8 -18.6 63 - SE 80 96 43 52 969.4 - -
26/02:00pm -13.2 -32.8 -17.5 70 - SE 85 109 46 59 970.0 - -
26/01:30pm -13.8 -33.4 -17.1 76 - SE 85 107 46 58 971.1 - -
26/01:00pm -13.1 -33.1 -17.1 72 - SE 87 106 47 57 970.1 970.2 -
26/12:50pm -13.3 -33.3 -16.8 75 - SE 87 106 47 57 970.6 - -
26/12:49pm -13.0 -33.7 -16.6 74 - SE 91 106 49 57 970.2 - -
26/12:47pm -13.9 -30.1 -16.6 80 - ESE 67 96 36 52 971.2 - -
26/12:30pm -13.5 -33.4 -15.2 87 - SE 87 117 47 63 971.1 - -
26/12:25pm -13.9 -33.8 -15.7 86 - SE 87 107 47 58 971.2 - -
26/12:22pm -13.8 -33.7 -15.9 84 - SE 87 98 47 53 970.5 - -
26/12:18pm -13.9 -28.9 -15.6 87 - ESE 61 82 33 44 971.2 - -
26/12:01pm -13.9 -32.9 -15.4 88 - SE 82 102 44 55 970.7 - -
26/12:00pm -13.8 -32.8 -15.3 88 - SE 82 98 44 53 970.7 - -
26/11:30am -13.4 -34.1 -15.0 88 - SE 91 119 49 64 970.7 - -
26/11:00am -13.6 -35.6 -15.9 83 - SE 98 117 53 63 970.2 - -
26/10:30am -13.6 -36.0 -16.0 82 - SE 100 120 54 65 969.4 - -
26/10:00am -13.6 -36.8 -16.0 82 - SE 104 130 56 70 969.5 969.6 -
26/09:30am -13.3 -36.1 -15.7 82 - SE 102 122 55 66 969.6 - -
26/09:00am -13.6 -37.2 -16.0 82 - SE 106 128 57 69 969.5 - -
26/08:30am -13.7 -37.8 -15.4 87 - SE 109 130 59 70 969.7 - -
26/08:00am -14.1 -39.0 -15.8 87 - SE 113 132 61 71 970.0 - -
26/07:30am -14.4 -39.3 -15.8 89 - SE 113 137 61 74 970.5 - -
26/07:00am -13.7 -38.6 -15.5 86 - SE 113 135 61 73 970.6 970.7 -
26/06:34am -13.7 -39.0 -15.8 84 - SE 115 137 62 74 971.0 - -
26/06:30am -13.5 -38.7 -15.6 84 - SE 115 132 62 71 971.1 - -
26/06:00am -13.3 -38.6 -15.9 81 - SE 115 137 62 74 970.9 - -
26/05:30am -13.6 -39.2 -15.6 85 - SE 117 141 63 76 970.6 - -
26/05:00am -13.1 -37.9 -15.1 85 - SE 113 132 61 71 971.0 - -
26/04:30am -13.5 -38.7 -15.5 85 - SE 115 137 62 74 971.9 - -
26/04:00am -13.4 -38.6 -15.2 86 - SE 115 152 62 82 972.3 972.4 -
26/03:30am -13.0 -38.2 -14.4 89 - SE 115 137 62 74 971.9 - -
26/03:00am -13.8 -40.0 -15.2 89 - SE 120 143 65 77 972.7 - -
26/02:30am -13.6 -39.6 -14.9 90 - SE 119 139 64 75 972.9 - -
26/02:00am -13.2 -38.4 -14.5 90 - SE 115 135 62 73 973.3 - -
26/01:31am -14.1 -39.7 -15.5 89 - SE 117 135 63 73 974.4 - -
26/01:30am -14.0 -40.0 -15.3 90 - SE 119 135 64 73 974.3 - -
26/01:00am -13.7 -38.5 -15.0 90 - SE 113 132 61 71 975.5 975.6 -
26/12:31am -13.8 -38.3 -15.1 90 - SE 111 133 60 72 975.9 - -
26/12:30am -13.9 -38.4 -15.3 89 - SE 111 128 60 69 976.0 - -
26/12:09am -13.9 -37.4 -15.3 89 - SE 106 124 57 67 976.3 - -
26/12:00am -13.9 -37.6 -15.3 89 - SE 107 124 58 67 976.1 - -
 
Date/Time
EST
Temp
°C
App
Temp
°C
Dew
Point
°C
Rel
Hum
%
Delta-T
°C
Wind Press
QNH
hPa
Press
MSL
hPa
Rain since
9am
mm
Dir  Spd
km/h
Gust
km/h
Spd
kts
Gust
kts
25/11:30pm -13.6 -37.7 -14.9 90 - SE 109 130 59 70 976.8 - -
25/11:00pm -14.0 -37.7 -15.5 88 - SE 107 128 58 69 977.0 - -
25/10:30pm -14.0 -38.1 -15.4 89 - SE 109 128 59 69 977.7 - -
25/10:05pm -14.4 -38.9 -15.8 89 - SE 111 132 60 71 977.8 - -
25/10:00pm -14.6 -39.1 -16.0 89 - SE 111 126 60 68 977.8 977.9 -
25/09:30pm -14.8 -39.3 -16.3 88 - SE 111 130 60 70 977.9 - -
25/09:00pm -14.8 -39.7 -16.5 87 - SE 113 133 61 72 978.1 - -
25/08:30pm -15.1 -39.7 -16.9 86 - SE 111 128 60 69 978.8 - -
25/08:00pm -15.4 -39.2 -17.2 86 - SE 107 126 58 68 979.7 - -
25/07:30pm -15.4 -39.0 -17.3 85 - SE 106 126 57 68 980.9 - -
25/07:05pm -15.4 -37.5 -17.3 85 - SE 98 117 53 63 981.8 - -
25/07:00pm -15.4 -37.1 -17.3 85 - SE 96 113 52 61 981.9 982.1 -
25/06:30pm -15.6 -37.2 -18.2 80 - SE 95 115 51 62 983.0 - -
25/06:03pm -15.6 -36.8 -18.8 76 - SE 93 111 50 60 984.0 - -
25/06:00pm -15.7 -37.3 -18.8 77 - SE 95 109 51 59 983.8 - -
25/05:31pm -15.6 -35.3 -20.0 69 - SE 85 104 46 56 985.2 - -
25/05:30pm -15.6 -35.7 -19.6 71 - SE 87 104 47 56 984.6 - -
25/05:06pm -15.3 -35.5 -22.1 56 - SE 87 106 47 57 985.4 - -
25/05:00pm -15.4 -36.0 -22.2 56 - SE 89 106 48 57 985.7 - -
25/04:54pm -15.4 -35.6 -21.6 59 - ESE 87 106 47 57 985.5 - -
25/04:30pm -16.0 -36.6 -22.1 59 - SE 89 102 48 55 985.6 - -
25/04:00pm -16.0 -35.8 -22.1 59 - SE 85 100 46 54 985.8 986.0 -
25/03:31pm -16.3 -35.8 -23.2 55 - SE 83 102 45 55 986.2 - -
25/03:30pm -16.3 -36.2 -24.0 51 - SE 85 102 46 55 985.9 - -
25/03:01pm -16.4 -35.3 -24.4 50 - SE 80 102 43 55 986.2 - -
25/03:00pm -16.3 -35.2 -24.5 49 - SE 80 95 43 51 986.7 - -
25/02:30pm -16.8 -35.4 -25.2 48 - SE 78 100 42 54 987.3 - -
25/02:04pm -16.9 -36.2 -25.3 48 - SE 82 100 44 54 987.1 - -
25/02:00pm -16.9 -36.2 -25.7 46 - SE 82 96 44 52 987.2 - -
25/01:30pm -16.4 -35.0 -28.2 35 - ESE 78 93 42 50 987.7 - -
25/01:00pm -16.5 -33.6 -28.3 35 - ESE 70 95 38 51 987.9 988.1 -
25/12:49pm -16.6 -33.7 -27.8 37 - ESE 70 89 38 48 988.1 - -
25/12:30pm -16.9 -32.7 -28.1 37 - SE 63 76 34 41 988.6 - -
25/12:18pm -17.2 -31.6 -28.4 37 - SE 56 69 30 37 989.7 - -
25/12:12pm -17.6 -28.1 -28.7 37 - SE 35 61 19 33 990.3 - -
25/12:00pm -16.3 -23.0 -30.5 28 - SE 15 24 8 13 990.7 - -
25/11:30am -16.4 -24.4 -29.9 30 - ESE 22 37 12 20 990.8 - -
25/11:00am -17.5 -27.6 -29.5 34 - ESE 33 46 18 25 991.0 - -
25/10:30am -18.0 -30.0 -30.0 34 - ESE 43 54 23 29 990.9 - -
25/10:00am -18.7 -30.7 -29.7 37 - ESE 43 57 23 31 990.7 990.9 -
25/09:45am -18.8 -30.8 -29.5 38 - ESE 43 48 23 26 990.6 - -
25/09:30am -19.9 -28.6 -28.5 46 - SE 26 32 14 17 990.4 - -
25/09:00am -20.4 -29.1 -28.5 48 - SE 26 32 14 17 990.5 - -
25/08:30am -20.7 -26.6 -29.0 47 - ESE 11 15 6 8 990.8 - -
25/08:06am -20.7 -27.4 -29.0 47 - ESE 15 26 8 14 990.9 - -
25/08:00am -20.8 -31.6 -28.9 48 - SSE 37 41 20 22 990.3 - -
25/07:30am -20.7 -29.1 -28.6 49 - SSE 24 33 13 18 990.1 - -
25/07:00am -20.8 -30.7 -29.1 47 - SSE 32 37 17 20 990.0 990.2 -
25/06:30am -20.1 -26.0 -29.4 43 - ESE 11 24 6 13 990.2 - -
25/06:19am -19.6 -25.1 -28.9 43 - E 9 15 5 8 990.2 - -
25/06:00am -21.4 -32.2 -29.0 50 - SE 37 46 20 25 989.7 - -
25/05:30am -18.3 -26.3 -29.9 35 - SSE 22 33 12 18 989.4 - -
25/05:16am -19.7 -30.2 -30.6 37 - SSE 35 43 19 23 989.6 - -
25/05:00am -19.7 -27.1 -29.0 43 - WSW 19 24 10 13 989.6 - -
25/04:30am -19.6 -25.9 -28.9 43 - SSW 13 20 7 11 989.0 - -
25/04:00am -20.1 -26.4 -28.0 49 - SW 13 20 7 11 988.5 988.7 -
25/03:30am -17.5 -23.4 -29.8 33 - WSW 11 19 6 10 988.3 - -
25/03:00am -18.8 -24.7 -29.5 38 - SW 11 22 6 12 988.0 - -
25/02:30am -18.2 -23.4 -30.1 34 - SSW 7 17 4 9 987.9 - -
25/02:00am -17.6 -24.3 -29.6 34 - SSW 15 19 8 10 987.6 - -
25/01:30am -17.9 -25.9 -29.6 35 - SW 22 30 12 16 987.0 - -
25/01:00am -17.5 -22.5 -28.9 36 - N 6 15 3 8 986.6 986.8 -
25/12:30am -17.2 -23.5 -28.9 35 - E 13 17 7 9 986.2 - -
25/12:10am -17.9 -27.0 -28.7 38 - SSE 28 33 15 18 986.1 - -

Other Formats:

Comma delimited format used in spreadsheet applications
http://www.bom.gov.au/fwo/IDT60803/IDT60803.89564.axf

JavaScript Object Notation format (JSON) in row-major order
http://www.bom.gov.au/fwo/IDT60803/IDT60803.89564.json